KGOK

Guthrie-Edmond Regional Airport

Guthrie, Oklahoma, USA
METAR KGOK 212153Z AUTO 31011G16KT 10SM CLR 33/13 A2987 RMK AO2 SLP104 T03280128
Observed Flight Rules
Jun-21 @ 21:53 UTC (13 minutes ago) Visual Flight Rules
Wind Visibility Clouds
310° at 11 knots
 Gusting to 16 knots
10 miles
  • Clear skies
Temperatures Readings
Current 33°C / 91°F
Dewpoint 13°C / 55°F
Humidity 30%
Altimeter 29.87" Hg
Pressure 1010.4 hPa
Elevation 324
METAR KGOK 212153Z AUTO 31011G16KT 10SM CLR 33/13 A2987 RMK AO2 SLP104 T03280128
Observed Flight Rules
Jun-21 @ 21:53 UTC
(13 minutes ago)
VFR
Wind Visibility
310° at 11 knots
 Gusting to 16 knots
10 miles
Clouds
  • Clear skies
Temperature Dewpoint
33°C / 91°F 13°C / 55°F
Humidity Altimeter Pressure
30% 29.87" Hg 1010.4 hPa